sensor_id;sensor_type;location;lat;lon;timestamp;P1;durP1;ratioP1;P2;durP2;ratioP2
26696;SDS011;14312;52.614;13.496;2023-03-20T00:01:28;2.45;;;2.20;;
26696;SDS011;14312;52.614;13.496;2023-03-20T00:04:15;2.40;;;1.83;;
26696;SDS011;14312;52.614;13.496;2023-03-20T00:07:01;2.22;;;1.95;;
26696;SDS011;14312;52.614;13.496;2023-03-20T00:09:48;2.05;;;1.73;;
26696;SDS011;14312;52.614;13.496;2023-03-20T00:12:34;3.22;;;2.30;;
26696;SDS011;14312;52.614;13.496;2023-03-20T00:15:25;2.35;;;2.15;;
26696;SDS011;14312;52.614;13.496;2023-03-20T00:18:18;2.47;;;2.13;;
26696;SDS011;14312;52.614;13.496;2023-03-20T00:21:08;2.40;;;1.83;;
26696;SDS011;14312;52.614;13.496;2023-03-20T00:24:01;2.42;;;1.85;;
26696;SDS011;14312;52.614;13.496;2023-03-20T00:26:48;2.47;;;2.15;;
26696;SDS011;14312;52.614;13.496;2023-03-20T00:29:36;2.40;;;2.20;;
26696;SDS011;14312;52.614;13.496;2023-03-20T00:32:22;2.42;;;1.98;;
26696;SDS011;14312;52.614;13.496;2023-03-20T00:35:15;1.83;;;1.73;;
26696;SDS011;14312;52.614;13.496;2023-03-20T00:38:03;2.20;;;2.00;;
26696;SDS011;14312;52.614;13.496;2023-03-20T00:40:49;2.40;;;2.20;;
26696;SDS011;14312;52.614;13.496;2023-03-20T00:43:35;2.42;;;2.22;;
26696;SDS011;14312;52.614;13.496;2023-03-20T00:46:22;2.13;;;1.92;;
26696;SDS011;14312;52.614;13.496;2023-03-20T00:49:09;2.30;;;2.10;;
26696;SDS011;14312;52.614;13.496;2023-03-20T00:51:56;2.22;;;1.88;;
26696;SDS011;14312;52.614;13.496;2023-03-20T00:54:43;2.78;;;2.28;;
26696;SDS011;14312;52.614;13.496;2023-03-20T00:57:37;2.83;;;2.60;;
26696;SDS011;14312;52.614;13.496;2023-03-20T01:03:26;2.72;;;2.42;;
26696;SDS011;14312;52.614;13.496;2023-03-20T01:06:14;2.25;;;2.05;;
26696;SDS011;14312;52.614;13.496;2023-03-20T01:09:00;2.72;;;2.17;;
26696;SDS011;14312;52.614;13.496;2023-03-20T01:11:48;2.85;;;2.50;;
26696;SDS011;14312;52.614;13.496;2023-03-20T01:14:34;2.78;;;2.50;;
26696;SDS011;14312;52.614;13.496;2023-03-20T01:17:20;2.63;;;2.40;;
26696;SDS011;14312;52.614;13.496;2023-03-20T01:20:14;2.67;;;2.33;;
26696;SDS011;14312;52.614;13.496;2023-03-20T01:23:02;2.42;;;2.22;;
26696;SDS011;14312;52.614;13.496;2023-03-20T01:25:48;2.15;;;1.90;;
26696;SDS011;14312;52.614;13.496;2023-03-20T01:28:35;2.50;;;2.30;;
26696;SDS011;14312;52.614;13.496;2023-03-20T01:31:21;2.28;;;2.08;;
26696;SDS011;14312;52.614;13.496;2023-03-20T01:34:08;3.38;;;2.20;;
26696;SDS011;14312;52.614;13.496;2023-03-20T01:36:56;3.67;;;2.50;;
26696;SDS011;14312;52.614;13.496;2023-03-20T01:39:43;2.35;;;2.15;;
26696;SDS011;14312;52.614;13.496;2023-03-20T01:42:29;2.63;;;2.40;;
26696;SDS011;14312;52.614;13.496;2023-03-20T01:45:18;2.47;;;2.20;;
26696;SDS011;14312;52.614;13.496;2023-03-20T01:48:26;2.53;;;2.22;;
26696;SDS011;14312;52.614;13.496;2023-03-20T01:57:19;3.55;;;2.10;;
26696;SDS011;14312;52.614;13.496;2023-03-20T02:00:09;2.00;;;1.90;;
26696;SDS011;14312;52.614;13.496;2023-03-20T02:02:58;2.30;;;2.10;;
26696;SDS011;14312;52.614;13.496;2023-03-20T02:05:45;2.10;;;1.90;;
26696;SDS011;14312;52.614;13.496;2023-03-20T02:08:31;2.05;;;1.95;;
26696;SDS011;14312;52.614;13.496;2023-03-20T02:11:22;3.28;;;2.58;;
26696;SDS011;14312;52.614;13.496;2023-03-20T02:14:09;2.70;;;2.30;;
26696;SDS011;14312;52.614;13.496;2023-03-20T02:16:57;2.38;;;2.05;;
26696;SDS011;14312;52.614;13.496;2023-03-20T02:22:53;2.50;;;2.30;;
26696;SDS011;14312;52.614;13.496;2023-03-20T02:32:33;3.17;;;2.20;;
26696;SDS011;14312;52.614;13.496;2023-03-20T02:35:45;2.10;;;1.95;;
26696;SDS011;14312;52.614;13.496;2023-03-20T02:41:51;2.78;;;2.20;;
26696;SDS011;14312;52.614;13.496;2023-03-20T02:47:52;3.30;;;2.47;;
26696;SDS011;14312;52.614;13.496;2023-03-20T02:50:48;2.95;;;2.50;;
26696;SDS011;14312;52.614;13.496;2023-03-20T02:53:59;2.15;;;2.03;;
26696;SDS011;14312;52.614;13.496;2023-03-20T02:59:57;2.42;;;2.22;;
26696;SDS011;14312;52.614;13.496;2023-03-20T03:06:21;2.47;;;2.28;;
26696;SDS011;14312;52.614;13.496;2023-03-20T03:09:13;2.67;;;2.35;;
26696;SDS011;14312;52.614;13.496;2023-03-20T03:12:09;2.88;;;2.58;;
26696;SDS011;14312;52.614;13.496;2023-03-20T03:15:01;3.08;;;2.78;;
26696;SDS011;14312;52.614;13.496;2023-03-20T03:18:00;3.17;;;2.95;;
26696;SDS011;14312;52.614;13.496;2023-03-20T03:20:51;3.45;;;2.67;;
26696;SDS011;14312;52.614;13.496;2023-03-20T03:23:44;3.83;;;2.55;;
26696;SDS011;14312;52.614;13.496;2023-03-20T03:26:33;3.35;;;3.03;;
26696;SDS011;14312;52.614;13.496;2023-03-20T03:29:24;2.72;;;2.53;;
26696;SDS011;14312;52.614;13.496;2023-03-20T03:32:20;3.65;;;3.08;;
26696;SDS011;14312;52.614;13.496;2023-03-20T03:35:30;2.90;;;2.63;;
26696;SDS011;14312;52.614;13.496;2023-03-20T03:38:25;3.70;;;3.03;;
26696;SDS011;14312;52.614;13.496;2023-03-20T03:47:20;3.45;;;3.13;;
26696;SDS011;14312;52.614;13.496;2023-03-20T03:50:34;3.13;;;2.83;;
26696;SDS011;14312;52.614;13.496;2023-03-20T03:53:25;2.92;;;2.70;;
26696;SDS011;14312;52.614;13.496;2023-03-20T03:56:17;2.85;;;2.58;;
26696;SDS011;14312;52.614;13.496;2023-03-20T03:59:12;2.80;;;2.60;;
26696;SDS011;14312;52.614;13.496;2023-03-20T04:02:06;3.15;;;2.85;;
26696;SDS011;14312;52.614;13.496;2023-03-20T04:04:53;3.45;;;2.45;;
26696;SDS011;14312;52.614;13.496;2023-03-20T04:07:39;3.13;;;2.80;;
26696;SDS011;14312;52.614;13.496;2023-03-20T04:10:29;3.60;;;2.45;;
26696;SDS011;14312;52.614;13.496;2023-03-20T04:13:15;2.88;;;2.65;;
26696;SDS011;14312;52.614;13.496;2023-03-20T04:16:01;3.97;;;2.70;;
26696;SDS011;14312;52.614;13.496;2023-03-20T04:18:47;2.95;;;2.75;;
26696;SDS011;14312;52.614;13.496;2023-03-20T04:21:34;2.95;;;2.65;;
26696;SDS011;14312;52.614;13.496;2023-03-20T04:24:20;2.60;;;2.40;;
26696;SDS011;14312;52.614;13.496;2023-03-20T04:27:06;2.85;;;2.65;;
26696;SDS011;14312;52.614;13.496;2023-03-20T04:29:52;3.20;;;2.80;;
26696;SDS011;14312;52.614;13.496;2023-03-20T04:32:38;3.13;;;2.83;;
26696;SDS011;14312;52.614;13.496;2023-03-20T04:35:24;3.15;;;2.78;;
26696;SDS011;14312;52.614;13.496;2023-03-20T04:38:10;3.22;;;2.78;;
26696;SDS011;14312;52.614;13.496;2023-03-20T04:40:56;2.90;;;2.70;;
26696;SDS011;14312;52.614;13.496;2023-03-20T04:43:42;3.70;;;3.40;;
26696;SDS011;14312;52.614;13.496;2023-03-20T04:46:28;3.20;;;2.90;;
26696;SDS011;14312;52.614;13.496;2023-03-20T04:49:14;3.58;;;2.95;;
26696;SDS011;14312;52.614;13.496;2023-03-20T04:52:00;3.17;;;2.85;;
26696;SDS011;14312;52.614;13.496;2023-03-20T04:54:46;3.30;;;3.00;;
26696;SDS011;14312;52.614;13.496;2023-03-20T04:57:32;3.80;;;3.42;;
26696;SDS011;14312;52.614;13.496;2023-03-20T05:00:18;3.50;;;3.20;;
26696;SDS011;14312;52.614;13.496;2023-03-20T05:03:05;3.45;;;3.13;;
26696;SDS011;14312;52.614;13.496;2023-03-20T05:05:51;3.58;;;3.00;;
26696;SDS011;14312;52.614;13.496;2023-03-20T05:08:37;3.45;;;3.15;;
26696;SDS011;14312;52.614;13.496;2023-03-20T05:11:26;3.50;;;3.20;;
26696;SDS011;14312;52.614;13.496;2023-03-20T05:14:13;4.10;;;3.13;;
26696;SDS011;14312;52.614;13.496;2023-03-20T05:16:59;3.97;;;3.67;;
26696;SDS011;14312;52.614;13.496;2023-03-20T05:19:45;3.88;;;3.58;;
26696;SDS011;14312;52.614;13.496;2023-03-20T05:22:31;3.35;;;3.05;;
26696;SDS011;14312;52.614;13.496;2023-03-20T05:25:17;4.30;;;3.90;;
26696;SDS011;14312;52.614;13.496;2023-03-20T05:28:03;4.22;;;3.88;;
26696;SDS011;14312;52.614;13.496;2023-03-20T05:30:49;3.95;;;3.65;;
26696;SDS011;14312;52.614;13.496;2023-03-20T05:33:35;3.83;;;3.53;;
26696;SDS011;14312;52.614;13.496;2023-03-20T05:36:21;3.40;;;3.10;;
26696;SDS011;14312;52.614;13.496;2023-03-20T05:39:07;3.85;;;3.55;;
26696;SDS011;14312;52.614;13.496;2023-03-20T05:41:53;3.95;;;3.63;;
26696;SDS011;14312;52.614;13.496;2023-03-20T05:44:39;4.05;;;3.75;;
26696;SDS011;14312;52.614;13.496;2023-03-20T05:47:25;4.07;;;3.67;;
26696;SDS011;14312;52.614;13.496;2023-03-20T05:50:12;3.88;;;3.58;;
26696;SDS011;14312;52.614;13.496;2023-03-20T05:52:58;3.80;;;3.47;;
26696;SDS011;14312;52.614;13.496;2023-03-20T05:55:45;3.70;;;3.40;;
26696;SDS011;14312;52.614;13.496;2023-03-20T05:58:31;3.88;;;3.58;;
26696;SDS011;14312;52.614;13.496;2023-03-20T06:01:17;4.45;;;3.67;;
26696;SDS011;14312;52.614;13.496;2023-03-20T06:04:06;4.25;;;3.85;;
26696;SDS011;14312;52.614;13.496;2023-03-20T06:06:53;4.20;;;3.80;;
26696;SDS011;14312;52.614;13.496;2023-03-20T06:09:39;3.88;;;3.58;;
26696;SDS011;14312;52.614;13.496;2023-03-20T06:12:24;3.78;;;3.47;;
26696;SDS011;14312;52.614;13.496;2023-03-20T06:15:10;4.13;;;3.78;;
26696;SDS011;14312;52.614;13.496;2023-03-20T06:17:56;4.45;;;4.05;;
26696;SDS011;14312;52.614;13.496;2023-03-20T06:20:43;4.63;;;3.90;;
26696;SDS011;14312;52.614;13.496;2023-03-20T06:23:29;4.47;;;4.07;;
26696;SDS011;14312;52.614;13.496;2023-03-20T06:26:15;5.15;;;4.65;;
26696;SDS011;14312;52.614;13.496;2023-03-20T06:29:01;6.25;;;5.68;;
26696;SDS011;14312;52.614;13.496;2023-03-20T06:31:47;5.65;;;5.15;;
26696;SDS011;14312;52.614;13.496;2023-03-20T06:34:34;5.47;;;4.97;;
26696;SDS011;14312;52.614;13.496;2023-03-20T06:37:20;5.80;;;5.30;;
26696;SDS011;14312;52.614;13.496;2023-03-20T06:40:06;5.72;;;5.22;;
26696;SDS011;14312;52.614;13.496;2023-03-20T06:42:53;7.35;;;6.65;;
26696;SDS011;14312;52.614;13.496;2023-03-20T06:45:40;7.18;;;6.47;;
26696;SDS011;14312;52.614;13.496;2023-03-20T06:48:26;7.97;;;7.00;;
26696;SDS011;14312;52.614;13.496;2023-03-20T06:51:12;9.02;;;7.93;;
26696;SDS011;14312;52.614;13.496;2023-03-20T06:53:58;9.68;;;8.75;;
26696;SDS011;14312;52.614;13.496;2023-03-20T06:56:44;9.27;;;8.27;;
26696;SDS011;14312;52.614;13.496;2023-03-20T06:59:30;11.23;;;9.65;;
26696;SDS011;14312;52.614;13.496;2023-03-20T07:02:16;12.60;;;10.15;;
26696;SDS011;14312;52.614;13.496;2023-03-20T07:05:02;11.57;;;9.88;;
26696;SDS011;14312;52.614;13.496;2023-03-20T07:07:48;11.32;;;9.90;;
26696;SDS011;14312;52.614;13.496;2023-03-20T07:10:34;10.75;;;9.55;;
26696;SDS011;14312;52.614;13.496;2023-03-20T07:13:22;10.70;;;9.05;;
26696;SDS011;14312;52.614;13.496;2023-03-20T07:16:08;10.50;;;9.20;;
26696;SDS011;14312;52.614;13.496;2023-03-20T07:18:54;11.02;;;9.80;;
26696;SDS011;14312;52.614;13.496;2023-03-20T07:21:40;13.30;;;11.48;;
26696;SDS011;14312;52.614;13.496;2023-03-20T07:24:26;12.43;;;10.18;;
26696;SDS011;14312;52.614;13.496;2023-03-20T07:27:12;11.40;;;10.20;;
26696;SDS011;14312;52.614;13.496;2023-03-20T07:29:58;11.45;;;10.23;;
26696;SDS011;14312;52.614;13.496;2023-03-20T07:32:44;10.90;;;9.60;;
26696;SDS011;14312;52.614;13.496;2023-03-20T07:35:30;12.20;;;9.98;;
26696;SDS011;14312;52.614;13.496;2023-03-20T07:38:16;12.38;;;10.85;;
26696;SDS011;14312;52.614;13.496;2023-03-20T07:41:02;12.15;;;10.88;;
26696;SDS011;14312;52.614;13.496;2023-03-20T07:43:48;14.13;;;10.38;;
26696;SDS011;14312;52.614;13.496;2023-03-20T07:46:34;13.02;;;10.25;;
26696;SDS011;14312;52.614;13.496;2023-03-20T07:49:20;12.05;;;9.95;;
26696;SDS011;14312;52.614;13.496;2023-03-20T07:52:06;11.63;;;9.82;;
26696;SDS011;14312;52.614;13.496;2023-03-20T07:54:53;13.02;;;9.63;;
26696;SDS011;14312;52.614;13.496;2023-03-20T07:57:39;9.63;;;8.05;;
26696;SDS011;14312;52.614;13.496;2023-03-20T08:00:24;11.98;;;9.63;;
26696;SDS011;14312;52.614;13.496;2023-03-20T08:03:11;10.38;;;8.82;;
26696;SDS011;14312;52.614;13.496;2023-03-20T08:05:56;11.57;;;9.68;;
26696;SDS011;14312;52.614;13.496;2023-03-20T08:08:43;11.57;;;9.00;;
26696;SDS011;14312;52.614;13.496;2023-03-20T08:11:29;10.32;;;8.52;;
26696;SDS011;14312;52.614;13.496;2023-03-20T08:14:15;10.48;;;8.38;;
26696;SDS011;14312;52.614;13.496;2023-03-20T08:17:01;9.32;;;8.32;;
26696;SDS011;14312;52.614;13.496;2023-03-20T08:19:47;10.55;;;9.02;;
26696;SDS011;14312;52.614;13.496;2023-03-20T08:22:33;12.18;;;9.15;;
26696;SDS011;14312;52.614;13.496;2023-03-20T08:25:19;10.88;;;9.07;;
26696;SDS011;14312;52.614;13.496;2023-03-20T08:28:05;11.82;;;8.90;;
26696;SDS011;14312;52.614;13.496;2023-03-20T08:30:51;10.52;;;8.90;;
26696;SDS011;14312;52.614;13.496;2023-03-20T08:33:37;11.43;;;8.85;;
26696;SDS011;14312;52.614;13.496;2023-03-20T08:36:24;10.15;;;8.65;;
26696;SDS011;14312;52.614;13.496;2023-03-20T08:39:10;12.27;;;9.63;;
26696;SDS011;14312;52.614;13.496;2023-03-20T08:41:56;13.15;;;10.30;;
26696;SDS011;14312;52.614;13.496;2023-03-20T08:44:42;12.30;;;9.77;;
26696;SDS011;14312;52.614;13.496;2023-03-20T08:47:29;13.25;;;9.82;;
26696;SDS011;14312;52.614;13.496;2023-03-20T08:50:15;14.85;;;10.98;;
26696;SDS011;14312;52.614;13.496;2023-03-20T08:53:01;13.75;;;10.55;;
26696;SDS011;14312;52.614;13.496;2023-03-20T08:55:48;13.73;;;10.98;;
26696;SDS011;14312;52.614;13.496;2023-03-20T08:58:37;11.40;;;9.70;;
26696;SDS011;14312;52.614;13.496;2023-03-20T09:01:23;12.25;;;9.63;;
26696;SDS011;14312;52.614;13.496;2023-03-20T09:04:10;11.88;;;9.75;;
26696;SDS011;14312;52.614;13.496;2023-03-20T09:06:57;15.07;;;11.35;;
26696;SDS011;14312;52.614;13.496;2023-03-20T09:09:45;12.95;;;9.65;;
26696;SDS011;14312;52.614;13.496;2023-03-20T09:12:31;12.45;;;10.38;;
26696;SDS011;14312;52.614;13.496;2023-03-20T09:15:18;13.80;;;11.40;;
26696;SDS011;14312;52.614;13.496;2023-03-20T09:18:04;11.00;;;9.52;;
26696;SDS011;14312;52.614;13.496;2023-03-20T09:20:50;11.98;;;9.07;;
26696;SDS011;14312;52.614;13.496;2023-03-20T09:23:36;15.32;;;11.45;;
26696;SDS011;14312;52.614;13.496;2023-03-20T09:26:22;14.02;;;11.35;;
26696;SDS011;14312;52.614;13.496;2023-03-20T09:29:08;12.98;;;10.95;;
26696;SDS011;14312;52.614;13.496;2023-03-20T09:31:54;12.05;;;10.07;;
26696;SDS011;14312;52.614;13.496;2023-03-20T09:34:40;11.13;;;8.40;;
26696;SDS011;14312;52.614;13.496;2023-03-20T09:37:26;12.10;;;8.57;;
26696;SDS011;14312;52.614;13.496;2023-03-20T09:40:19;10.05;;;8.63;;
26696;SDS011;14312;52.614;13.496;2023-03-20T09:43:17;10.80;;;8.27;;
26696;SDS011;14312;52.614;13.496;2023-03-20T09:49:13;9.65;;;7.63;;
26696;SDS011;14312;52.614;13.496;2023-03-20T09:52:26;9.38;;;7.00;;
26696;SDS011;14312;52.614;13.496;2023-03-20T09:55:18;8.35;;;7.03;;
26696;SDS011;14312;52.614;13.496;2023-03-20T09:58:09;9.80;;;7.28;;
26696;SDS011;14312;52.614;13.496;2023-03-20T10:01:00;8.25;;;7.45;;
26696;SDS011;14312;52.614;13.496;2023-03-20T10:03:51;10.15;;;7.60;;
26696;SDS011;14312;52.614;13.496;2023-03-20T10:06:40;10.00;;;7.57;;
26696;SDS011;14312;52.614;13.496;2023-03-20T10:09:26;10.02;;;7.25;;
26696;SDS011;14312;52.614;13.496;2023-03-20T10:15:35;7.05;;;6.25;;
26696;SDS011;14312;52.614;13.496;2023-03-20T10:18:24;7.85;;;6.50;;
26696;SDS011;14312;52.614;13.496;2023-03-20T10:21:16;7.43;;;6.38;;
26696;SDS011;14312;52.614;13.496;2023-03-20T10:24:28;7.00;;;6.10;;
26696;SDS011;14312;52.614;13.496;2023-03-20T10:27:20;7.75;;;6.95;;
26696;SDS011;14312;52.614;13.496;2023-03-20T10:33:49;8.13;;;6.68;;
26696;SDS011;14312;52.614;13.496;2023-03-20T10:36:55;6.72;;;5.47;;
26696;SDS011;14312;52.614;13.496;2023-03-20T10:40:39;7.88;;;5.65;;
26696;SDS011;14312;52.614;13.496;2023-03-20T10:43:09;7.32;;;6.30;;
26696;SDS011;14312;52.614;13.496;2023-03-20T10:46:03;6.80;;;5.95;;
26696;SDS011;14312;52.614;13.496;2023-03-20T10:48:56;6.32;;;5.57;;
26696;SDS011;14312;52.614;13.496;2023-03-20T10:51:59;7.65;;;6.60;;
26696;SDS011;14312;52.614;13.496;2023-03-20T10:54:51;9.52;;;7.18;;
26696;SDS011;14312;52.614;13.496;2023-03-20T10:57:51;6.60;;;5.95;;
26696;SDS011;14312;52.614;13.496;2023-03-20T11:00:42;7.88;;;6.25;;
26696;SDS011;14312;52.614;13.496;2023-03-20T11:03:29;9.63;;;6.32;;
26696;SDS011;14312;52.614;13.496;2023-03-20T11:06:18;7.03;;;5.82;;
26696;SDS011;14312;52.614;13.496;2023-03-20T11:09:10;8.13;;;6.57;;
26696;SDS011;14312;52.614;13.496;2023-03-20T11:12:02;6.70;;;5.97;;
26696;SDS011;14312;52.614;13.496;2023-03-20T11:14:49;6.72;;;5.47;;
26696;SDS011;14312;52.614;13.496;2023-03-20T11:17:41;6.25;;;5.38;;
26696;SDS011;14312;52.614;13.496;2023-03-20T11:21:12;6.28;;;4.95;;
26696;SDS011;14312;52.614;13.496;2023-03-20T11:23:41;6.15;;;4.57;;
26696;SDS011;14312;52.614;13.496;2023-03-20T11:29:25;6.05;;;4.50;;
26696;SDS011;14312;52.614;13.496;2023-03-20T11:40:57;6.10;;;4.90;;
26696;SDS011;14312;52.614;13.496;2023-03-20T11:43:43;5.63;;;4.20;;
26696;SDS011;14312;52.614;13.496;2023-03-20T11:46:29;4.07;;;3.67;;
26696;SDS011;14312;52.614;13.496;2023-03-20T11:49:18;4.93;;;3.85;;
26696;SDS011;14312;52.614;13.496;2023-03-20T11:52:13;4.93;;;3.97;;
26696;SDS011;14312;52.614;13.496;2023-03-20T11:55:03;6.05;;;5.05;;
26696;SDS011;14312;52.614;13.496;2023-03-20T11:57:59;5.40;;;4.45;;
26696;SDS011;14312;52.614;13.496;2023-03-20T12:00:48;5.90;;;5.15;;
26696;SDS011;14312;52.614;13.496;2023-03-20T12:06:45;5.30;;;4.35;;
26696;SDS011;14312;52.614;13.496;2023-03-20T12:09:47;5.00;;;3.95;;
26696;SDS011;14312;52.614;13.496;2023-03-20T12:12:38;4.72;;;4.20;;
26696;SDS011;14312;52.614;13.496;2023-03-20T12:15:31;4.57;;;4.13;;
26696;SDS011;14312;52.614;13.496;2023-03-20T12:18:24;6.28;;;4.70;;
26696;SDS011;14312;52.614;13.496;2023-03-20T12:27:54;5.68;;;4.18;;
26696;SDS011;14312;52.614;13.496;2023-03-20T12:36:28;7.30;;;5.63;;
26696;SDS011;14312;52.614;13.496;2023-03-20T12:39:18;6.30;;;5.20;;
26696;SDS011;14312;52.614;13.496;2023-03-20T12:45:18;7.32;;;5.22;;
26696;SDS011;14312;52.614;13.496;2023-03-20T12:54:40;7.70;;;6.30;;
26696;SDS011;14312;52.614;13.496;2023-03-20T12:57:58;7.45;;;6.47;;
26696;SDS011;14312;52.614;13.496;2023-03-20T13:07:35;7.70;;;6.07;;
26696;SDS011;14312;52.614;13.496;2023-03-20T13:10:39;7.22;;;6.07;;
26696;SDS011;14312;52.614;13.496;2023-03-20T13:16:43;6.88;;;5.78;;
26696;SDS011;14312;52.614;13.496;2023-03-20T13:19:40;6.25;;;5.65;;
26696;SDS011;14312;52.614;13.496;2023-03-20T13:22:46;7.68;;;6.07;;
26696;SDS011;14312;52.614;13.496;2023-03-20T13:25:58;9.07;;;5.88;;
26696;SDS011;14312;52.614;13.496;2023-03-20T13:29:07;7.90;;;6.13;;
26696;SDS011;14312;52.614;13.496;2023-03-20T13:38:21;8.48;;;7.07;;
26696;SDS011;14312;52.614;13.496;2023-03-20T13:41:09;8.60;;;6.88;;
26696;SDS011;14312;52.614;13.496;2023-03-20T13:43:56;10.13;;;7.30;;
26696;SDS011;14312;52.614;13.496;2023-03-20T13:46:47;8.23;;;7.05;;
26696;SDS011;14312;52.614;13.496;2023-03-20T13:52:44;8.52;;;6.88;;
26696;SDS011;14312;52.614;13.496;2023-03-20T13:55:38;8.68;;;6.55;;
26696;SDS011;14312;52.614;13.496;2023-03-20T13:58:34;9.13;;;7.07;;
26696;SDS011;14312;52.614;13.496;2023-03-20T14:04:17;8.50;;;6.82;;
26696;SDS011;14312;52.614;13.496;2023-03-20T14:13:16;7.70;;;5.97;;
26696;SDS011;14312;52.614;13.496;2023-03-20T14:16:06;8.77;;;6.50;;
26696;SDS011;14312;52.614;13.496;2023-03-20T14:19:07;7.82;;;5.70;;
26696;SDS011;14312;52.614;13.496;2023-03-20T14:22:02;8.02;;;6.68;;
26696;SDS011;14312;52.614;13.496;2023-03-20T14:24:53;9.43;;;6.82;;
26696;SDS011;14312;52.614;13.496;2023-03-20T14:28:43;8.32;;;6.20;;
26696;SDS011;14312;52.614;13.496;2023-03-20T14:34:22;9.00;;;6.88;;
26696;SDS011;14312;52.614;13.496;2023-03-20T14:40:15;7.22;;;6.03;;
26696;SDS011;14312;52.614;13.496;2023-03-20T14:43:16;7.05;;;5.88;;
26696;SDS011;14312;52.614;13.496;2023-03-20T14:52:41;5.90;;;4.72;;
26696;SDS011;14312;52.614;13.496;2023-03-20T15:04:27;6.95;;;5.75;;
26696;SDS011;14312;52.614;13.496;2023-03-20T15:10:06;8.13;;;6.88;;
26696;SDS011;14312;52.614;13.496;2023-03-20T15:12:52;9.98;;;7.18;;
26696;SDS011;14312;52.614;13.496;2023-03-20T15:15:50;8.25;;;6.72;;
26696;SDS011;14312;52.614;13.496;2023-03-20T15:18:49;9.48;;;7.72;;
26696;SDS011;14312;52.614;13.496;2023-03-20T15:21:36;9.02;;;7.40;;
26696;SDS011;14312;52.614;13.496;2023-03-20T15:24:26;7.35;;;6.18;;
26696;SDS011;14312;52.614;13.496;2023-03-20T15:27:14;8.50;;;6.70;;
26696;SDS011;14312;52.614;13.496;2023-03-20T15:30:00;8.35;;;6.53;;
26696;SDS011;14312;52.614;13.496;2023-03-20T15:32:47;6.47;;;5.35;;
26696;SDS011;14312;52.614;13.496;2023-03-20T15:35:34;6.57;;;5.85;;
26696;SDS011;14312;52.614;13.496;2023-03-20T15:38:21;6.50;;;5.22;;
26696;SDS011;14312;52.614;13.496;2023-03-20T15:47:00;8.38;;;6.28;;
26696;SDS011;14312;52.614;13.496;2023-03-20T15:49:52;7.43;;;6.43;;
26696;SDS011;14312;52.614;13.496;2023-03-20T15:52:44;8.70;;;6.80;;
26696;SDS011;14312;52.614;13.496;2023-03-20T15:55:51;7.97;;;6.93;;
26696;SDS011;14312;52.614;13.496;2023-03-20T15:58:42;8.70;;;6.45;;
26696;SDS011;14312;52.614;13.496;2023-03-20T16:01:31;7.13;;;6.40;;
26696;SDS011;14312;52.614;13.496;2023-03-20T16:04:18;7.43;;;6.65;;
26696;SDS011;14312;52.614;13.496;2023-03-20T16:07:17;10.52;;;7.90;;
26696;SDS011;14312;52.614;13.496;2023-03-20T16:10:15;8.30;;;6.85;;
26696;SDS011;14312;52.614;13.496;2023-03-20T16:13:03;7.38;;;6.30;;
26696;SDS011;14312;52.614;13.496;2023-03-20T16:15:51;8.18;;;6.43;;
26696;SDS011;14312;52.614;13.496;2023-03-20T16:18:39;10.20;;;7.60;;
26696;SDS011;14312;52.614;13.496;2023-03-20T16:21:27;10.90;;;7.68;;
26696;SDS011;14312;52.614;13.496;2023-03-20T16:24:21;9.50;;;7.45;;
26696;SDS011;14312;52.614;13.496;2023-03-20T16:27:23;8.40;;;6.93;;
26696;SDS011;14312;52.614;13.496;2023-03-20T16:30:13;7.30;;;6.35;;
26696;SDS011;14312;52.614;13.496;2023-03-20T16:33:08;8.07;;;6.75;;
26696;SDS011;14312;52.614;13.496;2023-03-20T16:35:58;8.55;;;6.97;;
26696;SDS011;14312;52.614;13.496;2023-03-20T16:38:53;7.93;;;6.80;;
26696;SDS011;14312;52.614;13.496;2023-03-20T16:41:44;6.68;;;5.95;;
26696;SDS011;14312;52.614;13.496;2023-03-20T16:44:31;6.82;;;5.80;;
26696;SDS011;14312;52.614;13.496;2023-03-20T16:47:22;7.28;;;5.70;;
26696;SDS011;14312;52.614;13.496;2023-03-20T16:50:10;5.95;;;5.35;;
26696;SDS011;14312;52.614;13.496;2023-03-20T16:53:11;7.47;;;5.75;;
26696;SDS011;14312;52.614;13.496;2023-03-20T16:56:00;7.13;;;5.65;;
26696;SDS011;14312;52.614;13.496;2023-03-20T16:58:49;6.05;;;5.15;;
26696;SDS011;14312;52.614;13.496;2023-03-20T17:01:36;6.07;;;5.20;;
26696;SDS011;14312;52.614;13.496;2023-03-20T17:04:35;7.95;;;5.90;;
26696;SDS011;14312;52.614;13.496;2023-03-20T17:07:23;7.35;;;6.65;;
26696;SDS011;14312;52.614;13.496;2023-03-20T17:13:03;5.68;;;5.18;;
26696;SDS011;14312;52.614;13.496;2023-03-20T17:15:51;5.60;;;5.10;;
26696;SDS011;14312;52.614;13.496;2023-03-20T17:18:38;6.80;;;5.72;;
26696;SDS011;14312;52.614;13.496;2023-03-20T17:21:24;5.57;;;5.00;;
26696;SDS011;14312;52.614;13.496;2023-03-20T17:24:11;7.32;;;5.20;;
26696;SDS011;14312;52.614;13.496;2023-03-20T17:26:58;5.63;;;5.10;;
26696;SDS011;14312;52.614;13.496;2023-03-20T17:29:45;5.85;;;5.22;;
26696;SDS011;14312;52.614;13.496;2023-03-20T17:32:33;5.72;;;4.97;;
26696;SDS011;14312;52.614;13.496;2023-03-20T17:35:19;6.55;;;4.72;;
26696;SDS011;14312;52.614;13.496;2023-03-20T17:38:07;6.15;;;5.05;;
26696;SDS011;14312;52.614;13.496;2023-03-20T17:40:59;4.93;;;4.53;;
26696;SDS011;14312;52.614;13.496;2023-03-20T17:43:45;5.18;;;4.68;;
26696;SDS011;14312;52.614;13.496;2023-03-20T17:46:32;6.35;;;5.20;;
26696;SDS011;14312;52.614;13.496;2023-03-20T17:49:18;6.53;;;5.32;;
26696;SDS011;14312;52.614;13.496;2023-03-20T17:52:14;5.95;;;4.80;;
26696;SDS011;14312;52.614;13.496;2023-03-20T17:55:02;7.15;;;5.05;;
26696;SDS011;14312;52.614;13.496;2023-03-20T17:57:48;6.22;;;5.00;;
26696;SDS011;14312;52.614;13.496;2023-03-20T18:00:34;6.03;;;5.43;;
26696;SDS011;14312;52.614;13.496;2023-03-20T18:03:20;5.43;;;4.90;;
26696;SDS011;14312;52.614;13.496;2023-03-20T18:06:06;5.30;;;4.80;;
26696;SDS011;14312;52.614;13.496;2023-03-20T18:08:57;6.57;;;5.85;;
26696;SDS011;14312;52.614;13.496;2023-03-20T18:11:45;8.15;;;6.40;;
26696;SDS011;14312;52.614;13.496;2023-03-20T18:14:31;6.95;;;6.25;;
26696;SDS011;14312;52.614;13.496;2023-03-20T18:17:17;6.32;;;5.50;;
26696;SDS011;14312;52.614;13.496;2023-03-20T18:20:03;7.40;;;6.25;;
26696;SDS011;14312;52.614;13.496;2023-03-20T18:22:49;5.93;;;5.32;;
26696;SDS011;14312;52.614;13.496;2023-03-20T18:25:35;6.18;;;5.57;;
26696;SDS011;14312;52.614;13.496;2023-03-20T18:28:21;6.95;;;5.97;;
26696;SDS011;14312;52.614;13.496;2023-03-20T18:31:07;7.63;;;6.00;;
26696;SDS011;14312;52.614;13.496;2023-03-20T18:33:54;7.13;;;5.93;;
26696;SDS011;14312;52.614;13.496;2023-03-20T18:36:40;7.65;;;6.18;;
26696;SDS011;14312;52.614;13.496;2023-03-20T18:39:27;7.10;;;6.25;;
26696;SDS011;14312;52.614;13.496;2023-03-20T18:42:13;7.78;;;6.47;;
26696;SDS011;14312;52.614;13.496;2023-03-20T18:44:59;8.38;;;6.63;;
26696;SDS011;14312;52.614;13.496;2023-03-20T18:47:45;6.78;;;5.90;;
26696;SDS011;14312;52.614;13.496;2023-03-20T18:50:32;7.50;;;6.32;;
26696;SDS011;14312;52.614;13.496;2023-03-20T18:53:20;6.63;;;5.70;;
26696;SDS011;14312;52.614;13.496;2023-03-20T18:56:13;6.82;;;5.65;;
26696;SDS011;14312;52.614;13.496;2023-03-20T18:59:04;7.00;;;6.10;;
26696;SDS011;14312;52.614;13.496;2023-03-20T19:01:52;6.68;;;5.95;;
26696;SDS011;14312;52.614;13.496;2023-03-20T19:04:38;6.80;;;5.97;;
26696;SDS011;14312;52.614;13.496;2023-03-20T19:07:23;6.88;;;5.97;;
26696;SDS011;14312;52.614;13.496;2023-03-20T19:10:26;6.80;;;5.75;;